Enter the Airport ICAO Code

Search by Airport or City

Current Weather

SAVC | General Enrique Mosconi International Airport

Comodoro Rivadavia, Chubut, Argentina

Last Update 42 Minutes Ago

Clear Sky

Temperature of 01 ºC

Light to Moderate Winds from NorthWest

Temperature

01 ºC

Dew Point Temperature

04 ºC Below Zero

Relative Humidity

69.16 %

Wind Direction

NorthWest (330º, Ranging from 290º to 020º)

Wind Velocity

9 km/h (05 kt)

Gusts

None

Visibility

No Significant Reductions

Sea Level Pressure

1018 hPa (Hectopascals)

Layers of Clouds

None

METAR SAVC 191100Z 33005KT 290V020 CAVOK 01/M04 Q1018

Weather Forecast

SAVC | General Enrique Mosconi International Airport

Comodoro Rivadavia, Chubut, Argentina

Forecast valid for the next 24 Hours

From now on it is expected:

Clear Sky

Light to Moderate Winds from Variable Directions

In 4 to 6 hours it is expected the begining of:

Moderate Winds from West

Maximum Temperature

09 ºC in 6 Hours

Minimum Temperature

01 ºC Below Zero in 0 Hours

TAF SAVC 191100Z 1912/2012 VRB05KT CAVOK TX09/1918Z TNM01/1912Z BECMG 1916/1918 29010KT